sensor_id;sensor_type;location;lat;lon;timestamp;P1;durP1;ratioP1;P2;durP2;ratioP2
5465;SDS011;2755;50.728;7.108;2024-02-26T00:00:31;123.00;;;43.57;;
5465;SDS011;2755;50.728;7.108;2024-02-26T00:02:57;121.47;;;40.53;;
5465;SDS011;2755;50.728;7.108;2024-02-26T00:05:22;121.27;;;40.50;;
5465;SDS011;2755;50.728;7.108;2024-02-26T00:07:48;120.77;;;39.60;;
5465;SDS011;2755;50.728;7.108;2024-02-26T00:10:14;121.63;;;40.63;;
5465;SDS011;2755;50.728;7.108;2024-02-26T00:12:40;118.37;;;35.90;;
5465;SDS011;2755;50.728;7.108;2024-02-26T00:15:08;118.77;;;36.57;;
5465;SDS011;2755;50.728;7.108;2024-02-26T00:17:35;120.77;;;39.47;;
5465;SDS011;2755;50.728;7.108;2024-02-26T00:20:01;122.50;;;42.37;;
5465;SDS011;2755;50.728;7.108;2024-02-26T00:22:29;120.67;;;42.17;;
5465;SDS011;2755;50.728;7.108;2024-02-26T00:24:55;121.50;;;41.97;;
5465;SDS011;2755;50.728;7.108;2024-02-26T00:27:21;121.60;;;41.93;;
5465;SDS011;2755;50.728;7.108;2024-02-26T00:29:46;122.27;;;42.43;;
5465;SDS011;2755;50.728;7.108;2024-02-26T00:32:12;122.60;;;44.80;;
5465;SDS011;2755;50.728;7.108;2024-02-26T00:34:38;124.17;;;46.50;;
5465;SDS011;2755;50.728;7.108;2024-02-26T00:37:03;122.37;;;42.03;;
5465;SDS011;2755;50.728;7.108;2024-02-26T00:39:29;125.63;;;47.90;;
5465;SDS011;2755;50.728;7.108;2024-02-26T00:41:54;128.20;;;52.03;;
5465;SDS011;2755;50.728;7.108;2024-02-26T00:44:20;125.70;;;48.37;;
5465;SDS011;2755;50.728;7.108;2024-02-26T00:46:45;129.20;;;52.87;;
5465;SDS011;2755;50.728;7.108;2024-02-26T00:49:11;126.87;;;49.90;;
5465;SDS011;2755;50.728;7.108;2024-02-26T00:51:36;129.67;;;54.87;;
5465;SDS011;2755;50.728;7.108;2024-02-26T00:54:02;131.07;;;56.47;;
5465;SDS011;2755;50.728;7.108;2024-02-26T00:56:28;129.37;;;52.50;;
5465;SDS011;2755;50.728;7.108;2024-02-26T00:58:54;131.60;;;57.10;;
5465;SDS011;2755;50.728;7.108;2024-02-26T01:01:20;127.07;;;50.50;;
5465;SDS011;2755;50.728;7.108;2024-02-26T01:03:45;128.90;;;54.23;;
5465;SDS011;2755;50.728;7.108;2024-02-26T01:06:11;127.07;;;51.20;;
5465;SDS011;2755;50.728;7.108;2024-02-26T01:08:36;124.40;;;47.47;;
5465;SDS011;2755;50.728;7.108;2024-02-26T01:11:02;127.30;;;51.60;;
5465;SDS011;2755;50.728;7.108;2024-02-26T01:13:28;125.57;;;48.90;;
5465;SDS011;2755;50.728;7.108;2024-02-26T01:15:54;122.77;;;44.10;;
5465;SDS011;2755;50.728;7.108;2024-02-26T01:18:20;126.67;;;49.67;;
5465;SDS011;2755;50.728;7.108;2024-02-26T01:20:45;124.10;;;46.13;;
5465;SDS011;2755;50.728;7.108;2024-02-26T01:23:12;122.97;;;45.37;;
5465;SDS011;2755;50.728;7.108;2024-02-26T01:25:37;122.57;;;43.33;;
5465;SDS011;2755;50.728;7.108;2024-02-26T01:28:04;123.00;;;43.57;;
5465;SDS011;2755;50.728;7.108;2024-02-26T01:30:30;120.07;;;40.17;;
5465;SDS011;2755;50.728;7.108;2024-02-26T01:32:56;120.37;;;40.07;;
5465;SDS011;2755;50.728;7.108;2024-02-26T01:35:22;117.97;;;37.20;;
5465;SDS011;2755;50.728;7.108;2024-02-26T01:37:47;119.30;;;38.67;;
5465;SDS011;2755;50.728;7.108;2024-02-26T01:40:13;119.47;;;40.00;;
5465;SDS011;2755;50.728;7.108;2024-02-26T01:42:43;120.87;;;40.53;;
5465;SDS011;2755;50.728;7.108;2024-02-26T01:45:18;120.87;;;39.87;;
5465;SDS011;2755;50.728;7.108;2024-02-26T01:47:50;119.30;;;38.23;;
5465;SDS011;2755;50.728;7.108;2024-02-26T01:50:17;116.07;;;33.90;;
5465;SDS011;2755;50.728;7.108;2024-02-26T01:52:47;118.10;;;36.83;;
5465;SDS011;2755;50.728;7.108;2024-02-26T01:55:15;120.77;;;39.80;;
5465;SDS011;2755;50.728;7.108;2024-02-26T01:57:42;120.40;;;39.03;;
5465;SDS011;2755;50.728;7.108;2024-02-26T02:00:09;119.07;;;37.23;;
5465;SDS011;2755;50.728;7.108;2024-02-26T02:02:35;117.97;;;35.77;;
5465;SDS011;2755;50.728;7.108;2024-02-26T02:05:01;120.53;;;39.07;;
5465;SDS011;2755;50.728;7.108;2024-02-26T02:07:27;120.20;;;38.77;;
5465;SDS011;2755;50.728;7.108;2024-02-26T02:09:54;122.37;;;42.67;;
5465;SDS011;2755;50.728;7.108;2024-02-26T02:12:20;120.23;;;39.47;;
5465;SDS011;2755;50.728;7.108;2024-02-26T02:14:46;119.13;;;38.07;;
5465;SDS011;2755;50.728;7.108;2024-02-26T02:17:12;119.07;;;39.20;;
5465;SDS011;2755;50.728;7.108;2024-02-26T02:19:38;120.27;;;38.87;;
5465;SDS011;2755;50.728;7.108;2024-02-26T02:22:04;118.80;;;39.50;;
5465;SDS011;2755;50.728;7.108;2024-02-26T02:24:29;120.97;;;41.07;;
5465;SDS011;2755;50.728;7.108;2024-02-26T02:26:55;121.40;;;42.57;;
5465;SDS011;2755;50.728;7.108;2024-02-26T02:29:21;118.77;;;38.13;;
5465;SDS011;2755;50.728;7.108;2024-02-26T02:31:47;118.87;;;38.73;;
5465;SDS011;2755;50.728;7.108;2024-02-26T02:34:13;120.50;;;41.07;;
5465;SDS011;2755;50.728;7.108;2024-02-26T02:36:49;119.07;;;37.93;;
5465;SDS011;2755;50.728;7.108;2024-02-26T02:39:18;117.43;;;34.30;;
5465;SDS011;2755;50.728;7.108;2024-02-26T02:41:43;118.47;;;37.57;;
5465;SDS011;2755;50.728;7.108;2024-02-26T02:44:09;119.30;;;38.13;;
5465;SDS011;2755;50.728;7.108;2024-02-26T02:46:35;119.53;;;38.80;;
5465;SDS011;2755;50.728;7.108;2024-02-26T02:49:01;119.70;;;38.50;;
5465;SDS011;2755;50.728;7.108;2024-02-26T02:51:26;120.67;;;41.23;;
5465;SDS011;2755;50.728;7.108;2024-02-26T02:53:52;119.37;;;40.00;;
5465;SDS011;2755;50.728;7.108;2024-02-26T02:56:18;117.77;;;36.47;;
5465;SDS011;2755;50.728;7.108;2024-02-26T02:58:44;119.90;;;39.80;;
5465;SDS011;2755;50.728;7.108;2024-02-26T03:01:09;119.27;;;39.07;;
5465;SDS011;2755;50.728;7.108;2024-02-26T03:03:35;118.73;;;38.07;;
5465;SDS011;2755;50.728;7.108;2024-02-26T03:06:02;118.10;;;36.77;;
5465;SDS011;2755;50.728;7.108;2024-02-26T03:08:28;117.80;;;36.27;;
5465;SDS011;2755;50.728;7.108;2024-02-26T03:10:54;120.07;;;38.97;;
5465;SDS011;2755;50.728;7.108;2024-02-26T03:13:20;117.50;;;35.27;;
5465;SDS011;2755;50.728;7.108;2024-02-26T03:15:45;115.43;;;31.90;;
5465;SDS011;2755;50.728;7.108;2024-02-26T03:18:11;117.67;;;34.97;;
5465;SDS011;2755;50.728;7.108;2024-02-26T03:20:37;117.00;;;35.00;;
5465;SDS011;2755;50.728;7.108;2024-02-26T03:23:03;116.07;;;33.93;;
5465;SDS011;2755;50.728;7.108;2024-02-26T03:25:29;116.77;;;33.67;;
5465;SDS011;2755;50.728;7.108;2024-02-26T03:27:54;119.17;;;37.83;;
5465;SDS011;2755;50.728;7.108;2024-02-26T03:30:20;118.67;;;37.37;;
5465;SDS011;2755;50.728;7.108;2024-02-26T03:32:45;118.17;;;37.27;;
5465;SDS011;2755;50.728;7.108;2024-02-26T03:35:12;119.40;;;38.77;;
5465;SDS011;2755;50.728;7.108;2024-02-26T03:37:38;119.40;;;38.03;;
5465;SDS011;2755;50.728;7.108;2024-02-26T03:40:04;117.27;;;35.33;;
5465;SDS011;2755;50.728;7.108;2024-02-26T03:42:30;117.57;;;35.50;;
5465;SDS011;2755;50.728;7.108;2024-02-26T03:44:55;119.97;;;39.77;;
5465;SDS011;2755;50.728;7.108;2024-02-26T03:47:21;116.07;;;34.67;;
5465;SDS011;2755;50.728;7.108;2024-02-26T03:49:46;117.67;;;35.87;;
5465;SDS011;2755;50.728;7.108;2024-02-26T03:52:12;117.47;;;35.53;;
5465;SDS011;2755;50.728;7.108;2024-02-26T03:54:38;119.53;;;38.80;;
5465;SDS011;2755;50.728;7.108;2024-02-26T03:57:04;118.50;;;36.33;;
5465;SDS011;2755;50.728;7.108;2024-02-26T03:59:29;117.73;;;35.27;;
5465;SDS011;2755;50.728;7.108;2024-02-26T04:01:55;116.70;;;34.93;;
5465;SDS011;2755;50.728;7.108;2024-02-26T04:04:20;118.70;;;37.60;;
5465;SDS011;2755;50.728;7.108;2024-02-26T04:06:46;116.97;;;34.17;;
5465;SDS011;2755;50.728;7.108;2024-02-26T04:09:15;118.23;;;37.20;;
5465;SDS011;2755;50.728;7.108;2024-02-26T04:11:40;119.50;;;38.97;;
5465;SDS011;2755;50.728;7.108;2024-02-26T04:14:08;119.70;;;38.67;;
5465;SDS011;2755;50.728;7.108;2024-02-26T04:16:34;118.50;;;37.40;;
5465;SDS011;2755;50.728;7.108;2024-02-26T04:19:03;118.60;;;36.47;;
5465;SDS011;2755;50.728;7.108;2024-02-26T04:21:28;117.47;;;35.13;;
5465;SDS011;2755;50.728;7.108;2024-02-26T04:23:54;119.33;;;39.00;;
5465;SDS011;2755;50.728;7.108;2024-02-26T04:26:25;120.60;;;40.93;;
5465;SDS011;2755;50.728;7.108;2024-02-26T04:28:51;118.03;;;37.20;;
5465;SDS011;2755;50.728;7.108;2024-02-26T04:31:17;119.47;;;38.70;;
5465;SDS011;2755;50.728;7.108;2024-02-26T04:33:43;118.50;;;38.00;;
5465;SDS011;2755;50.728;7.108;2024-02-26T04:36:15;118.10;;;36.47;;
5465;SDS011;2755;50.728;7.108;2024-02-26T04:38:42;118.77;;;37.53;;
5465;SDS011;2755;50.728;7.108;2024-02-26T04:41:10;118.37;;;37.00;;
5465;SDS011;2755;50.728;7.108;2024-02-26T04:43:37;118.53;;;36.27;;
5465;SDS011;2755;50.728;7.108;2024-02-26T04:46:08;116.50;;;33.77;;
5465;SDS011;2755;50.728;7.108;2024-02-26T04:48:34;117.57;;;35.00;;
5465;SDS011;2755;50.728;7.108;2024-02-26T04:51:00;117.43;;;34.97;;
5465;SDS011;2755;50.728;7.108;2024-02-26T04:53:26;118.17;;;37.20;;
5465;SDS011;2755;50.728;7.108;2024-02-26T04:55:52;117.13;;;35.43;;
5465;SDS011;2755;50.728;7.108;2024-02-26T04:58:18;117.47;;;36.13;;
5465;SDS011;2755;50.728;7.108;2024-02-26T05:00:44;118.27;;;37.20;;
5465;SDS011;2755;50.728;7.108;2024-02-26T05:03:10;115.80;;;33.63;;
5465;SDS011;2755;50.728;7.108;2024-02-26T05:05:40;118.50;;;36.80;;
5465;SDS011;2755;50.728;7.108;2024-02-26T05:08:06;116.40;;;31.70;;
5465;SDS011;2755;50.728;7.108;2024-02-26T05:10:32;118.90;;;37.50;;
5465;SDS011;2755;50.728;7.108;2024-02-26T05:12:59;117.07;;;35.37;;
5465;SDS011;2755;50.728;7.108;2024-02-26T05:15:24;117.00;;;34.73;;
5465;SDS011;2755;50.728;7.108;2024-02-26T05:17:50;116.97;;;34.60;;
5465;SDS011;2755;50.728;7.108;2024-02-26T05:20:15;117.30;;;34.90;;
5465;SDS011;2755;50.728;7.108;2024-02-26T05:22:41;118.10;;;37.17;;
5465;SDS011;2755;50.728;7.108;2024-02-26T05:25:07;117.97;;;36.97;;
5465;SDS011;2755;50.728;7.108;2024-02-26T05:27:33;120.53;;;40.17;;
5465;SDS011;2755;50.728;7.108;2024-02-26T05:29:59;120.27;;;39.83;;
5465;SDS011;2755;50.728;7.108;2024-02-26T05:32:24;117.90;;;36.77;;
5465;SDS011;2755;50.728;7.108;2024-02-26T05:34:50;117.90;;;36.20;;
5465;SDS011;2755;50.728;7.108;2024-02-26T05:37:16;117.77;;;35.60;;
5465;SDS011;2755;50.728;7.108;2024-02-26T05:39:41;115.87;;;33.77;;
5465;SDS011;2755;50.728;7.108;2024-02-26T05:42:07;119.07;;;38.70;;
5465;SDS011;2755;50.728;7.108;2024-02-26T05:44:34;116.93;;;34.00;;
5465;SDS011;2755;50.728;7.108;2024-02-26T05:46:59;117.57;;;36.90;;
5465;SDS011;2755;50.728;7.108;2024-02-26T05:49:25;117.87;;;36.43;;
5465;SDS011;2755;50.728;7.108;2024-02-26T05:51:50;119.00;;;38.00;;
5465;SDS011;2755;50.728;7.108;2024-02-26T05:54:16;116.80;;;34.80;;
5465;SDS011;2755;50.728;7.108;2024-02-26T05:56:41;117.27;;;35.53;;
5465;SDS011;2755;50.728;7.108;2024-02-26T05:59:07;117.77;;;35.70;;
5465;SDS011;2755;50.728;7.108;2024-02-26T06:01:33;118.93;;;37.30;;
5465;SDS011;2755;50.728;7.108;2024-02-26T06:03:58;117.80;;;36.17;;
5465;SDS011;2755;50.728;7.108;2024-02-26T06:06:24;118.43;;;36.57;;
5465;SDS011;2755;50.728;7.108;2024-02-26T06:08:50;118.73;;;38.33;;
5465;SDS011;2755;50.728;7.108;2024-02-26T06:11:16;120.17;;;39.30;;
5465;SDS011;2755;50.728;7.108;2024-02-26T06:13:42;120.33;;;40.23;;
5465;SDS011;2755;50.728;7.108;2024-02-26T06:16:08;119.87;;;39.90;;
5465;SDS011;2755;50.728;7.108;2024-02-26T06:18:34;119.90;;;39.70;;
5465;SDS011;2755;50.728;7.108;2024-02-26T06:21:00;121.50;;;40.67;;
5465;SDS011;2755;50.728;7.108;2024-02-26T06:23:26;121.00;;;41.00;;
5465;SDS011;2755;50.728;7.108;2024-02-26T06:25:52;118.50;;;37.57;;
5465;SDS011;2755;50.728;7.108;2024-02-26T06:28:17;122.20;;;42.53;;
5465;SDS011;2755;50.728;7.108;2024-02-26T06:30:43;120.97;;;41.00;;
5465;SDS011;2755;50.728;7.108;2024-02-26T06:33:08;119.87;;;39.47;;
5465;SDS011;2755;50.728;7.108;2024-02-26T06:35:35;119.07;;;38.77;;
5465;SDS011;2755;50.728;7.108;2024-02-26T06:38:01;120.90;;;41.87;;
5465;SDS011;2755;50.728;7.108;2024-02-26T06:40:27;121.23;;;40.00;;
5465;SDS011;2755;50.728;7.108;2024-02-26T06:42:53;120.57;;;41.00;;
5465;SDS011;2755;50.728;7.108;2024-02-26T06:45:18;120.57;;;40.13;;
5465;SDS011;2755;50.728;7.108;2024-02-26T06:47:44;119.87;;;41.13;;
5465;SDS011;2755;50.728;7.108;2024-02-26T06:50:13;122.17;;;43.33;;
5465;SDS011;2755;50.728;7.108;2024-02-26T06:52:39;119.27;;;38.97;;
5465;SDS011;2755;50.728;7.108;2024-02-26T06:55:05;119.97;;;42.17;;
5465;SDS011;2755;50.728;7.108;2024-02-26T06:57:33;120.50;;;42.23;;
5465;SDS011;2755;50.728;7.108;2024-02-26T06:59:58;122.57;;;44.27;;
5465;SDS011;2755;50.728;7.108;2024-02-26T07:02:24;121.90;;;44.13;;
5465;SDS011;2755;50.728;7.108;2024-02-26T07:04:50;121.60;;;42.97;;
5465;SDS011;2755;50.728;7.108;2024-02-26T07:07:16;123.00;;;44.80;;
5465;SDS011;2755;50.728;7.108;2024-02-26T07:09:43;120.73;;;41.57;;
5465;SDS011;2755;50.728;7.108;2024-02-26T07:12:09;122.67;;;43.87;;
5465;SDS011;2755;50.728;7.108;2024-02-26T07:14:34;121.03;;;42.13;;
5465;SDS011;2755;50.728;7.108;2024-02-26T07:17:02;121.67;;;42.27;;
5465;SDS011;2755;50.728;7.108;2024-02-26T07:19:28;119.47;;;40.07;;
5465;SDS011;2755;50.728;7.108;2024-02-26T07:21:53;121.47;;;43.00;;
5465;SDS011;2755;50.728;7.108;2024-02-26T07:24:20;120.47;;;40.73;;
5465;SDS011;2755;50.728;7.108;2024-02-26T07:26:46;118.30;;;38.27;;
5465;SDS011;2755;50.728;7.108;2024-02-26T07:29:11;121.33;;;43.07;;
5465;SDS011;2755;50.728;7.108;2024-02-26T07:31:37;120.70;;;40.97;;
5465;SDS011;2755;50.728;7.108;2024-02-26T07:34:03;119.70;;;39.40;;
5465;SDS011;2755;50.728;7.108;2024-02-26T07:36:28;119.67;;;39.07;;
5465;SDS011;2755;50.728;7.108;2024-02-26T07:38:54;120.30;;;40.17;;
5465;SDS011;2755;50.728;7.108;2024-02-26T07:41:20;120.63;;;40.87;;
5465;SDS011;2755;50.728;7.108;2024-02-26T07:43:46;118.67;;;38.10;;
5465;SDS011;2755;50.728;7.108;2024-02-26T07:46:12;119.57;;;39.90;;
5465;SDS011;2755;50.728;7.108;2024-02-26T07:48:37;120.30;;;41.17;;
5465;SDS011;2755;50.728;7.108;2024-02-26T07:51:03;120.73;;;41.47;;
5465;SDS011;2755;50.728;7.108;2024-02-26T07:53:29;120.60;;;41.20;;
5465;SDS011;2755;50.728;7.108;2024-02-26T07:55:55;120.47;;;40.80;;
5465;SDS011;2755;50.728;7.108;2024-02-26T07:58:21;121.40;;;41.30;;
5465;SDS011;2755;50.728;7.108;2024-02-26T08:00:47;117.87;;;36.87;;
5465;SDS011;2755;50.728;7.108;2024-02-26T08:03:14;118.47;;;37.77;;
5465;SDS011;2755;50.728;7.108;2024-02-26T08:05:40;121.10;;;41.90;;
5465;SDS011;2755;50.728;7.108;2024-02-26T08:08:08;119.43;;;38.93;;
5465;SDS011;2755;50.728;7.108;2024-02-26T08:10:33;120.57;;;40.50;;
5465;SDS011;2755;50.728;7.108;2024-02-26T08:12:59;121.03;;;40.40;;
5465;SDS011;2755;50.728;7.108;2024-02-26T08:15:33;121.37;;;39.93;;
5465;SDS011;2755;50.728;7.108;2024-02-26T08:17:59;118.03;;;36.50;;
5465;SDS011;2755;50.728;7.108;2024-02-26T08:20:27;119.47;;;38.60;;
5465;SDS011;2755;50.728;7.108;2024-02-26T08:22:53;120.60;;;40.53;;
5465;SDS011;2755;50.728;7.108;2024-02-26T08:25:19;120.70;;;40.70;;
5465;SDS011;2755;50.728;7.108;2024-02-26T08:27:45;117.13;;;34.67;;
5465;SDS011;2755;50.728;7.108;2024-02-26T08:30:12;119.03;;;39.57;;
5465;SDS011;2755;50.728;7.108;2024-02-26T08:32:41;122.07;;;42.13;;
5465;SDS011;2755;50.728;7.108;2024-02-26T08:35:07;119.17;;;38.57;;
5465;SDS011;2755;50.728;7.108;2024-02-26T08:37:33;121.40;;;40.37;;
5465;SDS011;2755;50.728;7.108;2024-02-26T08:39:59;120.93;;;41.20;;
5465;SDS011;2755;50.728;7.108;2024-02-26T08:42:25;121.67;;;42.30;;
5465;SDS011;2755;50.728;7.108;2024-02-26T08:44:51;122.67;;;43.87;;
5465;SDS011;2755;50.728;7.108;2024-02-26T08:47:16;122.63;;;44.20;;
5465;SDS011;2755;50.728;7.108;2024-02-26T08:49:42;121.57;;;42.27;;
5465;SDS011;2755;50.728;7.108;2024-02-26T08:52:09;122.73;;;43.47;;
5465;SDS011;2755;50.728;7.108;2024-02-26T08:54:35;122.77;;;44.90;;
5465;SDS011;2755;50.728;7.108;2024-02-26T08:57:00;122.57;;;43.87;;
5465;SDS011;2755;50.728;7.108;2024-02-26T08:59:26;120.60;;;41.20;;
5465;SDS011;2755;50.728;7.108;2024-02-26T09:01:52;122.63;;;44.37;;
5465;SDS011;2755;50.728;7.108;2024-02-26T09:04:18;121.27;;;42.47;;
5465;SDS011;2755;50.728;7.108;2024-02-26T09:06:43;123.47;;;45.37;;
5465;SDS011;2755;50.728;7.108;2024-02-26T09:09:09;120.97;;;40.63;;
5465;SDS011;2755;50.728;7.108;2024-02-26T09:11:36;120.67;;;40.80;;
5465;SDS011;2755;50.728;7.108;2024-02-26T09:14:02;122.03;;;43.07;;
5465;SDS011;2755;50.728;7.108;2024-02-26T09:16:28;122.37;;;43.70;;
5465;SDS011;2755;50.728;7.108;2024-02-26T09:18:54;122.60;;;43.00;;
5465;SDS011;2755;50.728;7.108;2024-02-26T09:21:20;123.10;;;45.30;;
5465;SDS011;2755;50.728;7.108;2024-02-26T09:23:49;121.37;;;41.73;;
5465;SDS011;2755;50.728;7.108;2024-02-26T09:26:15;121.47;;;41.93;;
5465;SDS011;2755;50.728;7.108;2024-02-26T09:28:42;121.87;;;42.57;;
5465;SDS011;2755;50.728;7.108;2024-02-26T09:31:08;120.80;;;42.40;;
5465;SDS011;2755;50.728;7.108;2024-02-26T09:33:33;121.47;;;42.70;;
5465;SDS011;2755;50.728;7.108;2024-02-26T09:35:59;122.60;;;44.67;;
5465;SDS011;2755;50.728;7.108;2024-02-26T09:38:27;121.93;;;42.77;;
5465;SDS011;2755;50.728;7.108;2024-02-26T09:40:55;120.50;;;39.80;;
5465;SDS011;2755;50.728;7.108;2024-02-26T09:43:24;124.80;;;47.27;;
5465;SDS011;2755;50.728;7.108;2024-02-26T09:45:59;124.17;;;46.43;;
5465;SDS011;2755;50.728;7.108;2024-02-26T09:48:24;124.67;;;46.97;;
5465;SDS011;2755;50.728;7.108;2024-02-26T09:50:50;120.57;;;40.97;;
5465;SDS011;2755;50.728;7.108;2024-02-26T09:53:17;122.20;;;43.30;;
5465;SDS011;2755;50.728;7.108;2024-02-26T09:55:45;122.93;;;44.30;;
5465;SDS011;2755;50.728;7.108;2024-02-26T09:58:11;125.37;;;47.63;;
5465;SDS011;2755;50.728;7.108;2024-02-26T10:00:43;124.20;;;45.67;;
5465;SDS011;2755;50.728;7.108;2024-02-26T10:03:13;123.27;;;44.70;;
5465;SDS011;2755;50.728;7.108;2024-02-26T10:05:40;120.87;;;41.00;;
5465;SDS011;2755;50.728;7.108;2024-02-26T10:08:08;125.27;;;47.77;;
5465;SDS011;2755;50.728;7.108;2024-02-26T10:10:35;124.50;;;47.17;;
5465;SDS011;2755;50.728;7.108;2024-02-26T10:13:02;124.57;;;46.63;;
5465;SDS011;2755;50.728;7.108;2024-02-26T10:15:36;123.70;;;46.70;;
5465;SDS011;2755;50.728;7.108;2024-02-26T10:18:05;124.80;;;47.70;;
5465;SDS011;2755;50.728;7.108;2024-02-26T10:20:31;124.40;;;47.37;;
5465;SDS011;2755;50.728;7.108;2024-02-26T10:22:57;128.57;;;52.33;;
5465;SDS011;2755;50.728;7.108;2024-02-26T10:25:23;127.80;;;51.60;;
5465;SDS011;2755;50.728;7.108;2024-02-26T10:27:49;128.57;;;53.90;;
5465;SDS011;2755;50.728;7.108;2024-02-26T10:30:15;129.10;;;54.60;;
5465;SDS011;2755;50.728;7.108;2024-02-26T10:32:44;125.90;;;48.67;;
5465;SDS011;2755;50.728;7.108;2024-02-26T10:35:11;128.87;;;55.97;;
5465;SDS011;2755;50.728;7.108;2024-02-26T10:37:36;125.47;;;49.67;;
5465;SDS011;2755;50.728;7.108;2024-02-26T10:40:02;127.30;;;51.73;;
5465;SDS011;2755;50.728;7.108;2024-02-26T10:42:28;123.33;;;46.30;;
5465;SDS011;2755;50.728;7.108;2024-02-26T10:44:55;122.90;;;43.83;;
5465;SDS011;2755;50.728;7.108;2024-02-26T10:47:22;123.13;;;45.40;;
5465;SDS011;2755;50.728;7.108;2024-02-26T10:49:49;123.87;;;46.00;;
5465;SDS011;2755;50.728;7.108;2024-02-26T10:52:15;122.33;;;44.00;;
5465;SDS011;2755;50.728;7.108;2024-02-26T10:54:44;122.83;;;43.87;;
5465;SDS011;2755;50.728;7.108;2024-02-26T10:57:13;123.03;;;46.40;;
5465;SDS011;2755;50.728;7.108;2024-02-26T10:59:39;123.70;;;43.70;;
5465;SDS011;2755;50.728;7.108;2024-02-26T11:02:07;123.57;;;44.90;;
5465;SDS011;2755;50.728;7.108;2024-02-26T11:04:34;123.40;;;46.97;;
5465;SDS011;2755;50.728;7.108;2024-02-26T11:07:01;122.47;;;43.60;;
5465;SDS011;2755;50.728;7.108;2024-02-26T11:09:29;123.87;;;47.27;;
5465;SDS011;2755;50.728;7.108;2024-02-26T11:11:57;121.37;;;42.20;;
5465;SDS011;2755;50.728;7.108;2024-02-26T11:14:24;125.07;;;47.80;;
5465;SDS011;2755;50.728;7.108;2024-02-26T11:16:51;122.70;;;44.03;;
5465;SDS011;2755;50.728;7.108;2024-02-26T11:19:17;123.50;;;45.93;;
5465;SDS011;2755;50.728;7.108;2024-02-26T11:21:43;123.07;;;44.70;;
5465;SDS011;2755;50.728;7.108;2024-02-26T11:24:12;124.03;;;46.27;;
5465;SDS011;2755;50.728;7.108;2024-02-26T11:26:44;124.97;;;47.33;;
5465;SDS011;2755;50.728;7.108;2024-02-26T11:29:16;122.83;;;42.97;;
5465;SDS011;2755;50.728;7.108;2024-02-26T11:31:46;123.23;;;46.13;;
5465;SDS011;2755;50.728;7.108;2024-02-26T11:34:12;123.73;;;46.67;;
5465;SDS011;2755;50.728;7.108;2024-02-26T11:36:38;126.20;;;49.70;;
5465;SDS011;2755;50.728;7.108;2024-02-26T11:39:04;123.77;;;47.30;;
5465;SDS011;2755;50.728;7.108;2024-02-26T11:41:31;123.20;;;44.93;;
5465;SDS011;2755;50.728;7.108;2024-02-26T11:44:02;122.47;;;43.67;;
5465;SDS011;2755;50.728;7.108;2024-02-26T11:46:32;122.97;;;46.70;;
5465;SDS011;2755;50.728;7.108;2024-02-26T11:51:52;123.57;;;46.30;;
5465;SDS011;2755;50.728;7.108;2024-02-26T11:54:48;125.20;;;46.80;;
5465;SDS011;2755;50.728;7.108;2024-02-26T11:57:21;122.47;;;43.00;;
5465;SDS011;2755;50.728;7.108;2024-02-26T12:00:14;122.50;;;44.77;;
5465;SDS011;2755;50.728;7.108;2024-02-26T12:02:49;123.23;;;44.90;;
5465;SDS011;2755;50.728;7.108;2024-02-26T12:05:22;124.60;;;47.17;;
5465;SDS011;2755;50.728;7.108;2024-02-26T12:10:16;124.27;;;46.77;;
5465;SDS011;2755;50.728;7.108;2024-02-26T12:12:47;123.40;;;46.10;;
5465;SDS011;2755;50.728;7.108;2024-02-26T12:15:15;127.47;;;51.70;;
5465;SDS011;2755;50.728;7.108;2024-02-26T12:17:40;124.73;;;47.47;;
5465;SDS011;2755;50.728;7.108;2024-02-26T12:20:13;122.77;;;44.23;;
5465;SDS011;2755;50.728;7.108;2024-02-26T12:22:42;124.00;;;46.57;;
5465;SDS011;2755;50.728;7.108;2024-02-26T12:25:10;127.50;;;51.60;;
5465;SDS011;2755;50.728;7.108;2024-02-26T12:27:36;125.00;;;48.17;;
5465;SDS011;2755;50.728;7.108;2024-02-26T12:30:02;125.07;;;47.27;;
5465;SDS011;2755;50.728;7.108;2024-02-26T12:32:28;124.67;;;47.30;;
5465;SDS011;2755;50.728;7.108;2024-02-26T12:34:54;128.33;;;53.27;;
5465;SDS011;2755;50.728;7.108;2024-02-26T12:37:20;123.53;;;46.27;;
5465;SDS011;2755;50.728;7.108;2024-02-26T12:39:46;123.73;;;44.60;;
5465;SDS011;2755;50.728;7.108;2024-02-26T12:42:11;125.57;;;48.73;;
5465;SDS011;2755;50.728;7.108;2024-02-26T12:44:37;123.47;;;43.50;;
5465;SDS011;2755;50.728;7.108;2024-02-26T12:47:03;126.87;;;50.67;;
5465;SDS011;2755;50.728;7.108;2024-02-26T12:49:29;126.77;;;50.57;;
5465;SDS011;2755;50.728;7.108;2024-02-26T12:51:55;127.13;;;51.20;;
5465;SDS011;2755;50.728;7.108;2024-02-26T12:54:29;124.80;;;47.50;;
5465;SDS011;2755;50.728;7.108;2024-02-26T12:56:56;126.47;;;49.57;;
5465;SDS011;2755;50.728;7.108;2024-02-26T12:59:22;127.83;;;51.17;;
5465;SDS011;2755;50.728;7.108;2024-02-26T13:01:48;127.57;;;50.30;;
5465;SDS011;2755;50.728;7.108;2024-02-26T13:04:15;127.20;;;51.10;;
5465;SDS011;2755;50.728;7.108;2024-02-26T13:06:42;126.20;;;48.97;;
5465;SDS011;2755;50.728;7.108;2024-02-26T13:09:08;125.13;;;49.80;;
5465;SDS011;2755;50.728;7.108;2024-02-26T13:11:39;129.63;;;55.37;;
5465;SDS011;2755;50.728;7.108;2024-02-26T13:14:05;124.93;;;48.97;;
5465;SDS011;2755;50.728;7.108;2024-02-26T13:16:31;126.47;;;50.63;;
5465;SDS011;2755;50.728;7.108;2024-02-26T13:19:07;125.47;;;48.87;;
5465;SDS011;2755;50.728;7.108;2024-02-26T13:21:35;124.90;;;47.43;;
5465;SDS011;2755;50.728;7.108;2024-02-26T13:24:01;124.73;;;48.47;;
5465;SDS011;2755;50.728;7.108;2024-02-26T13:26:27;125.87;;;49.20;;
5465;SDS011;2755;50.728;7.108;2024-02-26T13:28:59;125.87;;;49.17;;
5465;SDS011;2755;50.728;7.108;2024-02-26T13:31:31;126.93;;;50.80;;
5465;SDS011;2755;50.728;7.108;2024-02-26T13:34:03;125.87;;;49.57;;
5465;SDS011;2755;50.728;7.108;2024-02-26T13:36:29;125.97;;;50.63;;
5465;SDS011;2755;50.728;7.108;2024-02-26T13:38:55;124.90;;;47.10;;
5465;SDS011;2755;50.728;7.108;2024-02-26T13:41:21;127.80;;;52.17;;
5465;SDS011;2755;50.728;7.108;2024-02-26T13:43:47;125.00;;;47.70;;
5465;SDS011;2755;50.728;7.108;2024-02-26T13:46:14;126.90;;;49.90;;
5465;SDS011;2755;50.728;7.108;2024-02-26T13:48:41;123.07;;;45.87;;
5465;SDS011;2755;50.728;7.108;2024-02-26T13:51:07;125.70;;;47.90;;
5465;SDS011;2755;50.728;7.108;2024-02-26T13:53:32;126.80;;;50.07;;
5465;SDS011;2755;50.728;7.108;2024-02-26T13:55:58;126.00;;;50.10;;
5465;SDS011;2755;50.728;7.108;2024-02-26T13:58:26;125.60;;;47.07;;
5465;SDS011;2755;50.728;7.108;2024-02-26T14:00:52;124.90;;;48.50;;
5465;SDS011;2755;50.728;7.108;2024-02-26T14:03:19;127.97;;;52.90;;
5465;SDS011;2755;50.728;7.108;2024-02-26T14:05:45;125.53;;;49.60;;
5465;SDS011;2755;50.728;7.108;2024-02-26T14:08:11;127.23;;;52.77;;
5465;SDS011;2755;50.728;7.108;2024-02-26T14:10:36;126.90;;;50.43;;
5465;SDS011;2755;50.728;7.108;2024-02-26T14:13:02;129.93;;;53.87;;
5465;SDS011;2755;50.728;7.108;2024-02-26T14:15:29;129.77;;;53.83;;
5465;SDS011;2755;50.728;7.108;2024-02-26T14:17:54;128.47;;;53.40;;
5465;SDS011;2755;50.728;7.108;2024-02-26T14:20:23;132.17;;;51.87;;
5465;SDS011;2755;50.728;7.108;2024-02-26T14:22:50;128.03;;;53.50;;
5465;SDS011;2755;50.728;7.108;2024-02-26T14:25:18;130.33;;;56.13;;
5465;SDS011;2755;50.728;7.108;2024-02-26T14:27:44;129.80;;;54.00;;
5465;SDS011;2755;50.728;7.108;2024-02-26T14:30:11;129.10;;;54.67;;
5465;SDS011;2755;50.728;7.108;2024-02-26T14:32:37;128.57;;;53.87;;
5465;SDS011;2755;50.728;7.108;2024-02-26T14:35:05;129.27;;;53.83;;